Time;durP1;ratioP1;P1;durP2;ratioP2;P2;SDS_P1;SDS_P2;PMS_P1;PMS_P2;Temp;Humidity;BMP_temperature;BMP_pressure;BME280_temperature;BME280_humidity;BME280_pressure;Samples;Min_cycle;Max_cycle;Signal;HPM_P1;HPM_P2
2022/12/31 00:02:55;;;;;;;23.65;15.32;;;;;;;7.42;100.00;100788.24;1784448;80;21239;-79
2022/12/31 00:06:01;;;;;;;22.48;15.23;;;;;;;7.43;100.00;100787.23;1784507;80;21187;-79
2022/12/31 00:09:09;;;;;;;25.92;16.80;;;;;;;7.45;100.00;100792.55;1784320;80;21196;-78
2022/12/31 00:12:14;;;;;;;22.17;14.05;;;;;;;7.58;100.00;100784.95;1782932;80;21259;-79
2022/12/31 00:15:20;;;;;;;25.50;15.95;;;;;;;7.52;100.00;100795.89;1784056;80;21200;-77
2022/12/31 00:18:28;;;;;;;23.00;13.78;;;;;;;7.47;100.00;100790.02;1783537;80;21204;-78
2022/12/31 00:21:36;;;;;;;21.02;13.72;;;;;;;7.44;100.00;100793.05;1784531;80;21419;-78
2022/12/31 00:24:41;;;;;;;20.82;14.10;;;;;;;7.49;100.00;100786.67;1784646;80;21191;-77
2022/12/31 00:27:48;;;;;;;22.07;14.70;;;;;;;7.52;100.00;100786.36;1784308;80;21790;-77
2022/12/31 00:30:55;;;;;;;21.50;12.88;;;;;;;7.62;100.00;100779.07;1784757;80;21184;-78
2022/12/31 00:34:01;;;;;;;21.40;13.38;;;;;;;7.63;100.00;100781.28;1784845;80;21196;-78
2022/12/31 00:37:06;;;;;;;25.88;12.10;;;;;;;7.54;100.00;100782.16;1784679;80;21180;-78
2022/12/31 00:40:13;;;;;;;22.32;12.75;;;;;;;7.53;100.00;100777.69;1784765;80;21240;-78
2022/12/31 00:43:19;;;;;;;25.72;13.00;;;;;;;7.55;100.00;100775.70;1784900;80;21174;-77
2022/12/31 00:46:25;;;;;;;19.10;13.03;;;;;;;7.59;99.58;100770.33;1784856;80;21190;-78
2022/12/31 00:49:31;;;;;;;20.25;13.98;;;;;;;7.60;98.84;100763.87;1783577;80;21189;-77
2022/12/31 00:52:36;;;;;;;22.07;13.72;;;;;;;7.51;98.31;100763.38;1787630;79;21223;-78
2022/12/31 00:55:41;;;;;;;28.25;18.52;;;;;;;7.56;98.01;100766.52;1800537;79;21188;-78
2022/12/31 00:58:48;;;;;;;23.70;14.73;;;;;;;7.55;97.42;100767.53;1799602;79;21528;-78
2022/12/31 01:01:53;;;;;;;20.02;13.40;;;;;;;7.40;97.82;100767.12;1798827;79;21262;-79
2022/12/31 01:04:59;;;;;;;24.43;15.20;;;;;;;7.41;97.09;100771.05;1799013;79;21345;-80
2022/12/31 01:08:04;;;;;;;22.27;13.93;;;;;;;7.30;96.44;100786.19;1800244;79;21734;-78
2022/12/31 01:11:20;;;;;;;22.42;13.40;;;;;;;7.22;96.79;100783.82;1800372;79;21171;-79
2022/12/31 01:14:28;;;;;;;25.90;13.65;;;;;;;7.17;96.50;100791.05;1800448;79;21191;-78
2022/12/31 01:17:33;;;;;;;20.05;14.45;;;;;;;7.11;96.91;100786.19;1800231;79;21188;-78
2022/12/31 01:20:44;;;;;;;29.07;15.75;;;;;;;7.11;96.54;100799.79;1799024;79;21222;-78
2022/12/31 01:23:52;;;;;;;24.25;13.85;;;;;;;7.09;96.58;100816.23;1800377;79;21262;-77
2022/12/31 01:26:58;;;;;;;25.55;15.05;;;;;;;7.08;96.56;100809.08;1800327;79;21167;-77
2022/12/31 01:30:04;;;;;;;24.57;15.50;;;;;;;7.06;96.30;100804.80;1799215;79;21222;-77
2022/12/31 01:33:10;;;;;;;22.07;15.43;;;;;;;7.11;95.59;100815.61;1800102;79;21246;-78
2022/12/31 01:36:19;;;;;;;23.18;15.13;;;;;;;7.03;95.70;100814.09;1799612;79;21333;-78
2022/12/31 01:39:24;;;;;;;25.75;15.80;;;;;;;7.10;95.25;100827.97;1799918;79;21223;-78
2022/12/31 01:42:23;;;;;;;21.75;14.70;;;;;;;7.12;94.30;100813.74;1798771;79;21306;-78
2022/12/31 01:45:30;;;;;;;29.37;16.62;;;;;;;6.88;93.98;100819.08;1798907;79;21783;-78
2022/12/31 01:48:32;;;;;;;30.30;18.48;;;;;;;6.63;94.19;100809.58;1800176;79;21203;-78
2022/12/31 01:51:38;;;;;;;27.13;18.77;;;;;;;6.64;94.42;100808.58;1800928;79;21247;-78
2022/12/31 01:54:48;;;;;;;32.25;19.17;;;;;;;6.83;93.12;100809.63;1799251;78;21214;-79
2022/12/31 01:57:51;;;;;;;32.23;19.12;;;;;;;7.58;91.25;100809.45;1800365;79;21188;-78
2022/12/31 02:00:57;;;;;;;30.80;19.25;;;;;;;7.37;88.67;100806.36;1772816;79;21184;-78
2022/12/31 02:04:03;;;;;;;33.58;20.65;;;;;;;7.28;89.40;100803.14;1800276;79;21175;-78
2022/12/31 02:07:14;;;;;;;30.82;19.77;;;;;;;7.09;89.74;100800.41;1799893;79;21213;-78
2022/12/31 02:10:21;;;;;;;28.00;20.02;;;;;;;7.07;89.51;100791.55;1798999;79;21226;-79
2022/12/31 02:13:27;;;;;;;31.00;21.48;;;;;;;7.03;89.39;100794.19;1800473;79;21781;-79
2022/12/31 02:17:06;;;;;;;33.67;21.80;;;;;;;6.69;90.00;100797.28;1800612;79;21192;-78
2022/12/31 02:20:22;;;;;;;36.33;21.23;;;;;;;6.62;90.30;100801.55;1799858;79;21219;-78
2022/12/31 02:23:57;;;;;;;29.27;20.92;;;;;;;6.45;90.79;100812.59;1787787;78;21202;-79
2022/12/31 02:27:36;;;;;;;38.55;22.65;;;;;;;6.49;90.66;100821.31;1800663;79;21757;-79
2022/12/31 02:30:42;;;;;;;39.50;23.35;;;;;;;6.27;90.91;100824.60;1799151;78;21183;-78
2022/12/31 02:34:05;;;;;;;36.68;22.67;;;;;;;6.12;91.41;100822.75;1800738;79;21183;-79
2022/12/31 02:37:13;;;;;;;40.88;25.37;;;;;;;6.18;91.63;100823.20;1799655;79;21218;-79
2022/12/31 02:40:20;;;;;;;36.80;23.07;;;;;;;6.21;91.75;100833.77;1799653;79;21262;-79
2022/12/31 02:43:26;;;;;;;34.43;23.25;;;;;;;5.97;92.57;100831.36;1801000;79;21196;-79
2022/12/31 02:46:48;;;;;;;42.53;25.08;;;;;;;5.86;92.91;100824.98;1799392;79;21175;-79
2022/12/31 02:50:32;;;;;;;38.73;25.52;;;;;;;5.84;92.80;100828.34;1800057;79;21188;-79
2022/12/31 02:53:56;;;;;;;36.93;25.40;;;;;;;5.86;92.59;100830.91;1799227;79;21238;-78
2022/12/31 02:57:37;;;;;;;39.60;25.10;;;;;;;5.72;92.15;100848.89;1800572;79;21745;-78
2022/12/31 03:07:37;;;;;;;41.68;24.82;;;;;;;5.72;93.38;100858.39;1800004;79;22540;-79
2022/12/31 03:10:36;;;;;;;32.10;21.33;;;;;;;5.78;92.76;100865.50;1799104;79;21211;-79
2022/12/31 03:13:30;;;;;;;35.83;23.80;;;;;;;5.68;92.37;100863.22;1800550;79;21184;-79
2022/12/31 03:16:16;;;;;;;42.27;27.20;;;;;;;5.44;92.61;100858.53;1798936;79;21235;-78
2022/12/31 03:22:32;;;;;;;43.48;29.18;;;;;;;5.32;92.96;100866.72;1796493;80;21195;-78
2022/12/31 03:25:40;;;;;;;42.03;28.30;;;;;;;5.32;93.33;100868.08;1796779;80;21175;-78
2022/12/31 03:28:50;;;;;;;41.70;26.87;;;;;;;5.29;93.54;100860.69;1796543;80;21255;-78
2022/12/31 03:31:55;;;;;;;44.83;27.65;;;;;;;5.19;93.67;100857.89;1795920;80;21247;-78
2022/12/31 03:35:02;;;;;;;46.92;26.42;;;;;;;5.19;93.61;100866.52;1797214;80;21785;-78
2022/12/31 03:38:08;;;;;;;44.95;29.18;;;;;;;5.11;93.72;100868.50;1796756;80;21215;-79
2022/12/31 03:41:15;;;;;;;43.58;27.82;;;;;;;5.20;93.01;100875.88;1796544;80;21223;-79
2022/12/31 03:44:21;;;;;;;43.45;29.25;;;;;;;5.12;92.84;100881.06;1793738;80;21215;-79
2022/12/31 03:47:27;;;;;;;39.35;24.75;;;;;;;5.20;93.11;100879.09;1797395;80;21591;-79
2022/12/31 03:50:32;;;;;;;41.20;27.73;;;;;;;5.17;92.68;100903.73;1793619;79;21246;-78
2022/12/31 03:53:38;;;;;;;44.93;27.67;;;;;;;5.11;92.74;100907.33;1796055;80;21203;-78
2022/12/31 03:56:44;;;;;;;47.55;30.32;;;;;;;4.92;93.37;100911.19;1796591;79;21206;-77
2022/12/31 03:59:51;;;;;;;46.40;29.00;;;;;;;4.88;93.77;100920.55;1797014;80;21199;-79
2022/12/31 04:02:57;;;;;;;40.85;26.75;;;;;;;4.81;93.95;100917.98;1797354;80;21172;-78
2022/12/31 04:06:06;;;;;;;44.90;29.37;;;;;;;4.76;94.17;100914.30;1787482;79;22468;-79
2022/12/31 04:09:13;;;;;;;48.33;30.52;;;;;;;4.66;94.26;100925.52;1780892;80;21928;-78
2022/12/31 04:12:18;;;;;;;49.48;29.05;;;;;;;4.66;94.04;100925.52;1764779;81;21161;-78
2022/12/31 04:15:26;;;;;;;49.95;30.70;;;;;;;4.64;93.92;100939.66;1782313;78;21168;-79
2022/12/31 04:18:32;;;;;;;48.30;30.45;;;;;;;4.60;93.90;100931.41;1787301;78;21199;-78
2022/12/31 04:21:38;;;;;;;58.52;30.35;;;;;;;4.64;93.94;100940.16;1798261;79;21223;-78
2022/12/31 04:24:43;;;;;;;41.70;27.20;;;;;;;4.59;93.76;100938.67;1798637;79;21271;-78
2022/12/31 04:27:49;;;;;;;40.10;24.63;;;;;;;4.46;94.33;100941.98;1792676;80;21798;-78
2022/12/31 04:30:54;;;;;;;41.85;27.65;;;;;;;4.51;94.47;100951.95;1780786;79;21250;-78
2022/12/31 04:34:00;;;;;;;44.53;27.73;;;;;;;4.56;94.71;100951.59;1763277;81;21739;-79
2022/12/31 04:37:06;;;;;;;39.90;25.57;;;;;;;4.66;94.14;100948.55;1762177;81;21190;-78
2022/12/31 04:40:13;;;;;;;43.55;27.45;;;;;;;4.73;93.97;100945.70;1814568;78;21158;-79
2022/12/31 04:43:19;;;;;;;38.05;22.42;;;;;;;4.70;93.94;100940.52;1833285;78;21781;-78
2022/12/31 04:46:10;;;;;;;39.38;25.35;;;;;;;4.52;94.33;100944.23;1765374;81;21211;-79
2022/12/31 04:49:18;;;;;;;46.75;29.02;;;;;;;4.45;94.42;100938.91;1790282;80;21790;-78
2022/12/31 04:52:24;;;;;;;45.70;27.22;;;;;;;4.44;94.51;100933.62;1797500;79;21225;-79
2022/12/31 04:55:32;;;;;;;42.95;25.57;;;;;;;4.42;94.57;100935.58;1778222;79;21194;-79
2022/12/31 04:58:38;;;;;;;45.10;26.62;;;;;;;4.47;94.44;100936.07;1795756;78;21259;-78
2022/12/31 05:01:44;;;;;;;38.98;25.65;;;;;;;4.44;94.30;100935.84;1797430;79;21801;-78
2022/12/31 05:04:50;;;;;;;39.80;25.02;;;;;;;4.42;94.22;100938.28;1789038;79;21184;-78
2022/12/31 05:07:56;;;;;;;37.13;23.12;;;;;;;4.35;93.88;100935.21;1765706;81;21258;-79
2022/12/31 05:11:02;;;;;;;40.43;25.23;;;;;;;4.10;94.19;100955.23;1765496;81;21250;-79
2022/12/31 05:14:09;;;;;;;41.73;26.05;;;;;;;4.06;94.49;100963.22;1786106;79;21226;-78
2022/12/31 05:17:15;;;;;;;47.93;25.62;;;;;;;4.09;94.75;100978.74;1796683;79;21723;-78
2022/12/31 05:20:21;;;;;;;42.85;27.95;;;;;;;4.01;94.54;100985.72;1819489;79;21168;-78
2022/12/31 05:23:27;;;;;;;31.57;21.42;;;;;;;4.08;94.27;100989.67;1785528;79;21186;-77
2022/12/31 05:26:33;;;;;;;35.83;24.50;;;;;;;4.01;94.50;100992.49;1771300;80;21272;-78
2022/12/31 05:29:39;;;;;;;41.90;24.57;;;;;;;3.93;94.78;100993.56;1791804;79;21160;-78
2022/12/31 05:32:46;;;;;;;34.78;22.17;;;;;;;3.96;94.71;101000.10;1801820;79;21912;-79
2022/12/31 05:35:51;;;;;;;35.80;23.55;;;;;;;4.03;94.72;101006.27;1787944;80;21235;-78
2022/12/31 05:38:58;;;;;;;32.03;21.75;;;;;;;4.03;94.87;101004.91;1773167;81;21169;-78
2022/12/31 05:42:05;;;;;;;44.67;24.27;;;;;;;4.12;94.63;101014.17;1768691;81;21271;-78
2022/12/31 05:45:12;;;;;;;36.42;24.57;;;;;;;4.30;94.34;101018.67;1787610;79;21195;-78
2022/12/31 05:48:19;;;;;;;36.95;23.57;;;;;;;4.32;94.36;101028.39;1820229;79;21208;-78
2022/12/31 05:51:18;;;;;;;46.68;24.15;;;;;;;4.44;93.82;101035.20;1777819;79;21251;-77
2022/12/31 05:54:11;;;;;;;31.65;21.97;;;;;;;4.60;93.20;101037.94;1784205;79;21167;-78
2022/12/31 05:57:16;;;;;;;43.67;21.00;;;;;;;4.59;93.12;101050.27;1802087;79;21736;-78
2022/12/31 06:00:23;;;;;;;33.33;20.92;;;;;;;4.32;93.74;101058.67;1800251;79;21475;-78
2022/12/31 06:03:28;;;;;;;37.80;21.85;;;;;;;4.28;93.57;101062.59;1785819;79;21259;-78
2022/12/31 06:06:36;;;;;;;37.40;21.70;;;;;;;4.30;93.09;101060.16;1768652;81;21813;-78
2022/12/31 06:09:42;;;;;;;31.40;20.37;;;;;;;4.16;93.33;101073.03;1769036;81;21235;-78
2022/12/31 06:12:48;;;;;;;29.42;19.52;;;;;;;4.15;93.28;101076.23;1767712;81;21191;-78
2022/12/31 06:15:53;;;;;;;33.25;20.08;;;;;;;4.19;92.89;101086.31;1768941;81;21717;-78
2022/12/31 06:19:00;;;;;;;32.63;21.15;;;;;;;4.12;92.91;101085.92;1769083;81;21186;-78
2022/12/31 06:22:05;;;;;;;37.33;21.33;;;;;;;4.12;92.85;101081.87;1766362;81;21282;-78
2022/12/31 06:25:05;;;;;;;31.52;20.37;;;;;;;4.20;92.33;101082.16;1768778;81;21199;-77
2022/12/31 06:28:12;;;;;;;38.50;21.27;;;;;;;4.21;92.64;101083.88;1767588;81;21247;-78
2022/12/31 06:31:19;;;;;;;25.37;17.85;;;;;;;4.36;92.15;101086.77;1768059;81;21808;-78
2022/12/31 06:34:24;;;;;;;32.85;20.02;;;;;;;4.41;92.38;101089.61;1766477;81;21187;-78
2022/12/31 06:37:29;;;;;;;39.05;20.75;;;;;;;4.45;91.77;101090.61;1767523;81;21365;-78
2022/12/31 06:40:35;;;;;;;26.97;19.48;;;;;;;4.48;92.20;101089.53;1767664;81;21218;-78
2022/12/31 06:43:33;;;;;;;;;;;;;;;4.67;92.05;101092.54;1771023;81;21218;-77
2022/12/31 06:46:39;;;;;;;30.17;19.20;;;;;;;4.62;91.82;101092.03;1769046;81;20236;-77
2022/12/31 06:49:45;;;;;;;30.20;19.67;;;;;;;4.84;92.08;101102.05;1768752;81;21198;-80
2022/12/31 06:52:51;;;;;;;38.50;20.43;;;;;;;4.85;91.40;101108.72;1768763;81;21175;-77
2022/12/31 06:55:57;;;;;;;29.67;18.37;;;;;;;4.86;90.89;101107.73;1790871;78;21171;-77
2022/12/31 06:59:04;;;;;;;25.88;17.50;;;;;;;4.73;91.02;101118.29;1787711;78;21180;-79
2022/12/31 07:02:36;;;;;;;28.57;18.77;;;;;;;4.77;90.54;101126.06;1761051;80;21750;-79
2022/12/31 07:06:05;;;;;;;33.38;20.97;;;;;;;4.72;90.27;101130.98;1759050;80;21744;-78
2022/12/31 07:09:19;;;;;;;32.73;21.02;;;;;;;4.79;89.77;101129.51;1757177;80;21724;-78
2022/12/31 07:12:57;;;;;;;35.95;23.05;;;;;;;4.87;90.14;101142.48;1759366;80;21225;-78
2022/12/31 07:16:26;;;;;;;27.05;18.77;;;;;;;4.99;89.95;101137.96;1759761;80;21190;-78
2022/12/31 07:19:37;;;;;;;27.98;18.05;;;;;;;5.07;89.44;101135.48;1761440;80;22476;-77
2022/12/31 07:22:42;;;;;;;24.85;17.37;;;;;;;5.16;89.05;101138.83;1758893;80;21760;-78
2022/12/31 07:25:51;;;;;;;29.80;20.00;;;;;;;4.98;88.56;101153.83;1762660;80;21216;-78
2022/12/31 07:29:04;;;;;;;30.70;20.85;;;;;;;4.92;87.98;101161.09;1758902;81;21759;-78
2022/12/31 07:32:33;;;;;;;28.52;20.52;;;;;;;4.90;87.80;101159.02;1763197;80;21204;-77
2022/12/31 07:36:29;;;;;;;35.80;20.52;;;;;;;5.01;87.79;101157.17;1750362;80;21166;-77
2022/12/31 07:39:59;;;;;;;29.80;20.77;;;;;;;5.26;87.87;101153.88;1756324;81;21734;-77
2022/12/31 07:43:27;;;;;;;32.17;19.27;;;;;;;5.58;87.46;101156.24;1759346;80;21192;-78
2022/12/31 07:46:59;;;;;;;30.62;19.75;;;;;;;5.62;86.91;101155.02;1755060;80;21178;-78
2022/12/31 07:49:57;;;;;;;32.33;20.30;;;;;;;5.57;86.98;101157.23;1758400;81;21718;-77
2022/12/31 07:53:03;;;;;;;30.97;19.85;;;;;;;5.57;86.67;101161.80;1764897;80;21184;-77
2022/12/31 07:56:09;;;;;;;29.05;20.40;;;;;;;5.52;86.89;101172.17;1756331;81;21198;-80
2022/12/31 07:59:23;;;;;;;29.35;19.07;;;;;;;5.52;87.63;101169.45;1764411;80;21700;-81
2022/12/31 08:02:47;;;;;;;25.67;18.20;;;;;;;5.72;87.03;101176.84;1751926;82;21235;-78
2022/12/31 08:06:21;;;;;;;30.43;20.20;;;;;;;5.79;86.51;101171.80;1762603;80;21168;-79
2022/12/31 08:10:06;;;;;;;31.65;19.87;;;;;;;5.67;86.14;101184.50;1778188;80;21231;-78
2022/12/31 08:13:17;;;;;;;24.98;17.35;;;;;;;5.54;86.39;101181.89;1763416;81;21231;-78
2022/12/31 08:16:23;;;;;;;29.23;19.82;;;;;;;5.53;86.31;101183.39;1764751;81;21210;-78
2022/12/31 08:19:37;;;;;;;20.05;15.08;;;;;;;5.43;86.51;101177.83;1764773;81;21193;-78
2022/12/31 08:23:33;;;;;;;25.00;18.55;;;;;;;5.45;87.52;101174.48;1764442;81;21822;-78
2022/12/31 08:27:03;;;;;;;29.60;19.05;;;;;;;5.56;87.54;101177.23;1690625;85;21542;-78
2022/12/31 08:30:26;;;;;;;24.75;17.70;;;;;;;5.47;88.19;101175.74;1688250;85;22520;-77
2022/12/31 08:33:51;;;;;;;31.12;18.50;;;;;;;5.44;87.91;101167.84;1755808;80;21794;-78
2022/12/31 08:37:14;;;;;;;23.57;17.17;;;;;;;5.48;87.43;101159.83;1761230;80;21711;-78
2022/12/31 08:40:37;;;;;;;28.45;19.12;;;;;;;5.48;87.76;101163.40;1753198;81;21737;-78
2022/12/31 08:44:09;;;;;;;31.77;19.87;;;;;;;5.64;87.46;101168.45;1745804;82;21266;-78
2022/12/31 08:47:31;;;;;;;30.23;20.57;;;;;;;5.72;87.60;101171.41;1746828;82;21173;-78
2022/12/31 08:50:37;;;;;;;28.40;18.87;;;;;;;5.82;87.78;101164.25;1747254;82;21238;-79
2022/12/31 08:53:44;;;;;;;23.87;16.70;;;;;;;5.90;88.13;101168.56;1757889;80;21176;-78
2022/12/31 08:57:15;;;;;;;28.70;18.95;;;;;;;5.98;87.84;101171.20;1757427;80;21226;-79
2022/12/31 09:00:24;;;;;;;27.67;19.52;;;;;;;5.81;88.28;101173.39;1754715;81;21218;-78
2022/12/31 09:03:44;;;;;;;29.32;19.95;;;;;;;5.97;88.15;101172.16;1785582;79;21188;-77
2022/12/31 09:07:03;;;;;;;26.90;17.67;;;;;;;6.02;88.43;101169.92;1782056;79;21207;-78
2022/12/31 09:10:36;;;;;;;34.50;19.97;;;;;;;6.19;87.84;101170.77;1781279;79;21211;-77
2022/12/31 09:14:12;;;;;;;35.38;20.88;;;;;;;6.09;87.51;101158.45;1794515;78;21180;-78
2022/12/31 09:17:43;;;;;;;25.15;17.92;;;;;;;6.22;87.55;101161.52;1777162;79;21191;-78
2022/12/31 09:20:48;;;;;;;28.75;19.95;;;;;;;6.38;87.20;101156.01;1783447;79;21173;-79
2022/12/31 09:23:53;;;;;;;29.87;20.80;;;;;;;6.39;87.12;101157.73;1823209;77;21136;-78
2022/12/31 09:27:28;;;;;;;27.50;19.45;;;;;;;6.47;87.29;101154.88;1797641;78;21187;-78
2022/12/31 09:30:34;;;;;;;28.12;19.05;;;;;;;6.47;87.21;101154.88;1796543;78;21214;-78
2022/12/31 09:33:55;;;;;;;24.35;17.10;;;;;;;6.46;87.51;101155.87;1806462;78;21728;-78
2022/12/31 09:37:07;;;;;;;37.03;19.10;;;;;;;6.50;87.48;101151.91;1794999;78;21167;-78
2022/12/31 09:40:30;;;;;;;25.27;18.35;;;;;;;6.63;86.99;101149.85;1795184;78;21147;-78
2022/12/31 09:43:38;;;;;;;32.85;19.90;;;;;;;6.64;87.26;101149.75;1778679;78;21800;-77
2022/12/31 09:46:32;;;;;;;31.00;20.82;;;;;;;6.85;86.60;101148.89;1800456;78;21722;-78
2022/12/31 09:53:49;;;;;;;37.88;19.77;;;;;;;7.27;84.48;101144.30;1715563;82;21284;-79
2022/12/31 09:57:17;;;;;;;23.12;16.60;;;;;;;7.18;84.73;101147.82;1707114;82;21779;-78
2022/12/31 10:00:49;;;;;;;32.90;20.02;;;;;;;7.11;84.69;101152.09;1726893;82;21696;-79
2022/12/31 10:04:15;;;;;;;29.77;20.68;;;;;;;7.08;84.58;101161.87;1706303;83;21175;-78
2022/12/31 10:07:58;;;;;;;33.90;20.82;;;;;;;7.15;84.25;101161.69;1725738;82;21213;-78
2022/12/31 10:11:35;;;;;;;39.88;23.73;;;;;;;6.92;84.67;101173.22;1701138;83;21234;-78
2022/12/31 10:14:57;;;;;;;33.33;22.90;;;;;;;6.88;84.88;101164.45;1690797;83;22043;-78
2022/12/31 10:18:41;;;;;;;31.00;21.75;;;;;;;6.98;85.65;101157.72;1723113;82;21185;-78
2022/12/31 10:22:21;;;;;;;32.00;22.73;;;;;;;7.06;85.39;101159.79;1697330;83;21225;-78
2022/12/31 10:25:55;;;;;;;35.63;22.98;;;;;;;7.21;84.30;101154.37;1705015;84;21215;-78
2022/12/31 10:29:24;;;;;;;32.65;22.77;;;;;;;6.98;85.19;101161.80;1708771;84;21785;-79
2022/12/31 10:33:10;;;;;;;34.92;22.50;;;;;;;6.74;85.31;101160.70;1709007;84;21982;-78
2022/12/31 10:36:58;;;;;;;30.77;22.05;;;;;;;6.71;86.08;101168.25;1708418;84;21239;-78
2022/12/31 10:40:24;;;;;;;35.60;24.07;;;;;;;6.78;86.03;101163.52;1708859;84;21290;-79
2022/12/31 10:44:11;;;;;;;28.17;19.17;;;;;;;6.58;86.18;101161.12;1708882;84;21199;-78
2022/12/31 10:47:27;;;;;;;30.17;21.80;;;;;;;6.64;85.58;101162.48;1708081;84;21223;-78
2022/12/31 10:50:45;;;;;;;36.25;24.20;;;;;;;6.48;85.97;101162.03;1708986;84;21302;-79
2022/12/31 15:49:06;;;;;;;44.00;19.27;;;;;;;3.91;100.00;101286.02;1809487;79;28198;-77
2022/12/31 15:52:26;;;;;;;30.85;19.80;;;;;;;3.78;100.00;101295.48;1783449;80;21252;-78
2022/12/31 15:55:47;;;;;;;36.70;19.87;;;;;;;3.78;100.00;101295.48;1783573;80;21231;-77
2022/12/31 15:58:52;;;;;;;;;;;;;;;3.87;100.00;101290.40;1819980;79;22488;-77
2022/12/31 16:01:56;;;;;;;22.80;17.02;;;;;;;3.76;100.00;101278.96;1783006;80;20627;-77
2022/12/31 16:05:02;;;;;;;23.18;17.60;;;;;;;3.84;100.00;101269.33;1778820;80;21193;-80
2022/12/31 16:08:10;;;;;;;49.08;21.15;;;;;;;3.74;100.00;101266.91;1785552;80;21180;-77
2022/12/31 16:11:16;;;;;;;31.70;20.60;;;;;;;3.91;100.00;101274.33;1785144;80;21239;-78
2022/12/31 16:14:30;;;;;;;34.25;19.75;;;;;;;3.81;100.00;101271.37;1785012;80;21235;-78
2022/12/31 16:17:38;;;;;;;27.52;20.72;;;;;;;3.94;100.00;101272.73;1785687;80;21379;-78
2022/12/31 16:20:53;;;;;;;43.15;22.17;;;;;;;3.93;100.00;101268.30;1786255;80;21171;-79
2022/12/31 16:24:02;;;;;;;34.20;17.20;;;;;;;3.83;100.00;101270.80;1786710;80;22505;-79
2022/12/31 16:27:17;;;;;;;26.55;17.25;;;;;;;4.08;100.00;101279.37;1786236;80;21177;-79
2022/12/31 16:30:37;;;;;;;34.80;19.52;;;;;;;3.86;100.00;101278.71;1786382;80;21238;-78
2022/12/31 16:33:44;;;;;;;31.43;19.30;;;;;;;3.88;100.00;101272.69;1785623;80;21283;-79
2022/12/31 16:36:49;;;;;;;35.15;20.32;;;;;;;4.01;99.45;101271.33;1786325;80;21228;-77
2022/12/31 16:40:16;;;;;;;36.25;21.20;;;;;;;4.01;98.94;101274.03;1785409;80;21215;-77
2022/12/31 16:43:29;;;;;;;33.60;23.12;;;;;;;4.06;98.88;101271.86;1786448;80;21196;-77
2022/12/31 16:46:36;;;;;;;31.80;21.70;;;;;;;4.10;97.71;101265.25;1786390;80;21227;-79
2022/12/31 16:49:45;;;;;;;36.15;22.82;;;;;;;3.83;98.06;101265.39;1767582;80;21228;-78
2022/12/31 16:52:54;;;;;;;35.20;21.27;;;;;;;3.92;98.32;101272.85;1768640;81;21194;-78
2022/12/31 16:56:10;;;;;;;59.98;21.02;;;;;;;3.94;98.35;101270.88;1766807;81;21193;-79
2022/12/31 16:59:30;;;;;;;26.15;18.48;;;;;;;4.10;98.07;101274.72;1766836;81;21264;-80
2022/12/31 17:02:46;;;;;;;43.85;21.57;;;;;;;3.99;97.89;101288.15;1768110;80;21221;-79
2022/12/31 17:06:11;;;;;;;37.42;21.85;;;;;;;3.90;96.97;101288.31;1768430;81;21752;-78
2022/12/31 17:09:25;;;;;;;57.80;23.45;;;;;;;3.81;97.50;101295.28;1766944;81;21189;-78
2022/12/31 17:12:32;;;;;;;30.12;20.37;;;;;;;3.66;97.88;101294.98;1768494;81;21186;-79
2022/12/31 17:15:48;;;;;;;33.18;20.12;;;;;;;3.56;98.85;101295.25;1732623;81;21237;-78
2022/12/31 17:18:54;;;;;;;38.98;22.60;;;;;;;3.58;98.79;101302.30;1767198;80;21209;-79
2022/12/31 17:22:01;;;;;;;50.63;22.60;;;;;;;3.46;99.29;101306.34;1768391;81;21170;-79
2022/12/31 17:25:13;;;;;;;33.83;21.52;;;;;;;3.52;98.97;101304.55;1768606;81;21190;-79
2022/12/31 17:28:29;;;;;;;36.30;24.55;;;;;;;3.46;99.26;101307.70;1767911;81;21252;-78
2022/12/31 17:31:47;;;;;;;43.48;25.17;;;;;;;3.45;99.63;101305.97;1768609;81;21170;-78
2022/12/31 17:34:56;;;;;;;34.58;22.22;;;;;;;3.43;99.44;101306.05;1766944;80;21216;-78
2022/12/31 17:38:22;;;;;;;;;;;;;;;3.48;98.69;101309.80;1770956;81;21260;-78
2022/12/31 17:41:33;;;;;;;41.95;21.00;;;;;;;3.25;98.92;101306.86;1768444;81;20593;-78
2022/12/31 17:44:40;;;;;;;38.40;21.93;;;;;;;3.22;99.63;101308.91;1766900;81;21181;-78
2022/12/31 17:47:49;;;;;;;31.00;22.10;;;;;;;3.03;100.00;101303.88;1768295;81;21248;-78
2022/12/31 17:50:59;;;;;;;36.50;22.77;;;;;;;3.09;99.86;101303.45;1784463;80;21271;-78
2022/12/31 17:54:07;;;;;;;31.17;21.97;;;;;;;3.07;99.67;101298.65;1786297;80;21821;-78
2022/12/31 17:57:13;;;;;;;48.08;26.50;;;;;;;3.08;99.29;101294.97;1785743;80;21232;-78
2022/12/31 18:00:34;;;;;;;46.15;25.70;;;;;;;3.08;99.65;101292.27;1785703;80;21192;-78
2022/12/31 18:03:33;;;;;;;31.55;22.87;;;;;;;3.19;99.95;101305.91;1785762;80;21861;-78
2022/12/31 18:06:26;;;;;;;30.35;22.10;;;;;;;3.26;100.00;101303.18;1784488;80;21193;-78
2022/12/31 18:09:32;;;;;;;30.90;20.02;;;;;;;3.29;99.69;101311.09;1784980;80;21882;-78
2022/12/31 18:12:38;;;;;;;28.70;20.05;;;;;;;3.06;100.00;101321.25;1786114;80;21489;-78
2022/12/31 18:15:44;;;;;;;33.18;21.12;;;;;;;2.95;100.00;101311.63;1785983;80;21738;-78
2022/12/31 18:18:51;;;;;;;32.60;21.82;;;;;;;2.93;99.84;101302.77;1785481;80;21267;-77
2022/12/31 18:21:59;;;;;;;28.27;18.23;;;;;;;2.72;100.00;101304.56;1785860;80;21188;-79
2022/12/31 18:25:05;;;;;;;27.80;17.70;;;;;;;2.75;100.00;101304.37;1785921;80;21240;-78
2022/12/31 18:28:15;;;;;;;25.17;17.45;;;;;;;2.61;99.46;101323.33;1786099;80;21165;-77
2022/12/31 18:31:35;;;;;;;23.40;16.37;;;;;;;2.24;100.00;101325.70;1785814;80;21747;-78
2022/12/31 18:34:40;;;;;;;24.07;16.95;;;;;;;2.07;100.00;101319.19;1785502;80;21768;-78
2022/12/31 18:37:47;;;;;;;20.92;14.43;;;;;;;2.23;100.00;101318.58;1784461;80;21247;-78
2022/12/31 18:41:02;;;;;;;30.68;15.08;;;;;;;2.17;100.00;101306.84;1785739;80;21185;-78
2022/12/31 18:44:07;;;;;;;19.00;14.03;;;;;;;2.16;100.00;101310.96;1786401;80;21156;-79
2022/12/31 18:47:23;;;;;;;20.15;13.35;;;;;;;2.38;100.00;101303.22;1785916;80;21172;-78
2022/12/31 18:50:30;;;;;;;17.95;12.95;;;;;;;2.26;100.00;101298.63;1784975;80;21267;-77
2022/12/31 18:53:36;;;;;;;15.40;11.50;;;;;;;2.17;100.00;101285.23;1784325;80;21192;-78
2022/12/31 18:56:41;;;;;;;17.32;12.82;;;;;;;2.18;100.00;101289.67;1784386;80;21168;-78
2022/12/31 18:59:49;;;;;;;22.67;15.78;;;;;;;2.00;99.82;101297.59;1784383;80;21196;-78
2022/12/31 19:02:56;;;;;;;18.92;12.88;;;;;;;1.96;100.00;101290.64;1785916;80;21173;-78
2022/12/31 19:06:01;;;;;;;16.02;11.75;;;;;;;1.95;100.00;101287.08;1784799;80;21809;-78
2022/12/31 19:09:07;;;;;;;24.40;14.10;;;;;;;1.87;99.69;101291.23;1785848;80;21240;-78
2022/12/31 19:12:16;;;;;;;19.35;13.65;;;;;;;1.78;99.31;101296.23;1784907;80;21173;-76
2022/12/31 19:15:35;;;;;;;19.60;13.25;;;;;;;1.80;99.71;101296.16;1785936;80;21180;-80
2022/12/31 19:18:40;;;;;;;20.95;12.43;;;;;;;1.63;100.00;101301.72;1784402;80;21173;-80
2022/12/31 19:21:45;;;;;;;16.10;11.93;;;;;;;1.37;100.00;101293.90;1785822;80;21184;-78
2022/12/31 19:24:53;;;;;;;16.17;12.13;;;;;;;1.40;100.00;101293.69;1785847;80;21303;-78
2022/12/31 19:27:59;;;;;;;16.90;12.65;;;;;;;1.50;100.00;101293.51;1785942;80;21189;-77
2022/12/31 19:31:04;;;;;;;24.70;16.23;;;;;;;1.54;100.00;101292.36;1784752;80;21236;-80
2022/12/31 19:34:09;;;;;;;16.25;11.65;;;;;;;1.47;100.00;101286.98;1785776;80;21212;-77
2022/12/31 19:37:19;;;;;;;15.20;10.93;;;;;;;1.26;100.00;101281.91;1785795;80;21215;-78
2022/12/31 19:40:23;;;;;;;14.73;10.90;;;;;;;1.03;100.00;101278.39;1784529;80;21219;-78
2022/12/31 19:43:29;;;;;;;13.60;10.32;;;;;;;1.06;100.00;101287.64;1785750;80;21234;-78
2022/12/31 19:46:36;;;;;;;14.23;10.05;;;;;;;1.19;100.00;101294.05;1785946;80;21763;-78
2022/12/31 19:49:42;;;;;;;14.78;11.35;;;;;;;1.29;100.00;101298.39;1785774;80;21251;-78
2022/12/31 19:52:48;;;;;;;14.05;10.50;;;;;;;1.34;99.68;101288.20;1782607;80;21267;-78